Time;durP1;ratioP1;P1;durP2;ratioP2;P2;SDS_P1;SDS_P2;PMS_P1;PMS_P2;Temp;Humidity;BMP_temperature;BMP_pressure;BME280_temperature;BME280_humidity;BME280_pressure;Samples;Min_cycle;Max_cycle;Signal;HPM_P1;HPM_P2
2022/10/15 00:00:26;;;;;;;;;;;;;;;;;;5072783;28;1297;-70
2022/10/15 00:02:53;;;;;;;;;;;;;;;;;;5072599;28;1981;-74
2022/10/15 00:05:19;;;;;;;;;;;;;;;;;;5073349;28;984;-74
2022/10/15 00:07:45;;;;;;;;;;;;;;;;;;5073139;28;1056;-73
2022/10/15 00:10:11;;;;;;;;;;;;;;;;;;5072507;28;1448;-73
2022/10/15 00:12:39;;;;;;;;;;;;;;;;;;5072109;28;1300;-73
2022/10/15 00:15:06;;;;;;;;;;;;;;;;;;5072534;28;1075;-73
2022/10/15 00:17:33;;;;;;;;;;;;;;;;;;5072766;28;1512;-72
2022/10/15 00:19:59;;;;;;;;;;;;;;;;;;5072788;28;1083;-73
2022/10/15 00:22:25;;;;;;;;;;;;;;;;;;5072317;28;1357;-73
2022/10/15 00:24:51;;;;;;;;;;;;;;;;;;5072207;28;1913;-73
2022/10/15 00:27:17;;;;;;;;;;;;;;;;;;5054251;28;1151;-72
2022/10/15 00:29:45;;;;;;;;;;;;;;;;;;5054511;28;1354;-72
2022/10/15 00:32:11;;;;;;;;;;;;;;;;;;5071987;28;1344;-72
2022/10/15 00:34:38;;;;;;;;;;;;;;;;;;5054644;28;1197;-72
2022/10/15 00:37:05;;;;;;;;;;;;;;;;;;5054021;28;1287;-72
2022/10/15 00:39:32;;;;;;;;;;;;;;;;;;5072208;28;810;-72
2022/10/15 00:41:58;;;;;;;;;;;;;;;;;;5054076;28;1301;-74
2022/10/15 00:44:43;;;;;;;;;;;;;;;;;;5071964;28;1922;-74
2022/10/15 00:47:13;;;;;;;;;;;;;;;;;;5053779;28;1480;-73
2022/10/15 00:49:40;;;;;;;;;;;;;;;;;;5071971;28;767;-73
2022/10/15 00:52:09;;;;;;;;;;;;;;;;;;5053921;28;1432;-73
2022/10/15 00:54:37;;;;;;;;;;;;;;;;;;5071935;28;818;-73
2022/10/15 00:57:04;;;;;;;;;;;;;;;;;;5053955;28;917;-73
2022/10/15 00:59:30;;;;;;;;;;;;;;;;;;5053590;28;1044;-73
2022/10/15 01:01:56;;;;;;;;;;;;;;;;;;5053212;28;1397;-73
2022/10/15 01:04:24;;;;;;;;;;;;;;;;;;5071456;28;1909;-72
2022/10/15 01:06:51;;;;;;;;;;;;;;;;;;5071530;28;909;-72
2022/10/15 01:09:17;;;;;;;;;;;;;;;;;;5071569;28;1063;-72
2022/10/15 01:11:45;;;;;;;;;;;;;;;;;;5053360;28;1337;-72
2022/10/15 01:14:21;;;;;;;;;;;;;;;;;;5071836;28;779;-73
2022/10/15 01:16:49;;;;;;;;;;;;;;;;;;5071596;28;1475;-74
2022/10/15 01:19:19;;;;;;;;;;;;;;;;;;5070630;28;1056;-73
2022/10/15 01:21:47;;;;;;;;;;;;;;;;;;5070335;28;1369;-72
2022/10/15 01:24:23;;;;;;;;;;;;;;;;;;5071761;28;2024;-73
2022/10/15 01:27:00;;;;;;;;;;;;;;;;;;5071606;28;794;-73
2022/10/15 01:29:32;;;;;;;;;;;;;;;;;;5051768;28;1479;-72
2022/10/15 01:32:01;;;;;;;;;;;;;;;;;;5071255;28;1288;-73
2022/10/15 01:34:28;;;;;;;;;;;;;;;;;;5053436;28;1485;-73
2022/10/15 01:36:56;;;;;;;;;;;;;;;;;;5053278;28;1088;-72
2022/10/15 01:39:25;;;;;;;;;;;;;;;;;;5058396;28;1320;-73
2022/10/15 01:41:52;;;;;;;;;;;;;;;;;;5053550;28;1470;-73
2022/10/15 01:44:22;;;;;;;;;;;;;;;;;;5053200;28;1960;-72
2022/10/15 01:47:17;;;;;;;;;;;;;;;;;;5040282;28;1169;-73
2022/10/15 01:49:44;;;;;;;;;;;;;;;;;;5071951;28;1328;-73
2022/10/15 01:52:12;;;;;;;;;;;;;;;;;;5073623;28;1374;-73
2022/10/15 01:54:39;;;;;;;;;;;;;;;;;;5057100;28;1140;-73
2022/10/15 01:57:05;;;;;;;;;;;;;;;;;;5073890;28;1345;-73
2022/10/15 01:59:32;;;;;;;;;;;;;;;;;;5056948;28;1423;-73
2022/10/15 02:01:58;;;;;;;;;;;;;;;;;;5056490;28;1298;-73
2022/10/15 02:04:27;;;;;;;;;;;;;;;;;;5073627;28;1914;-73
2022/10/15 02:06:55;;;;;;;;;;;;;;;;;;5074695;28;802;-72
2022/10/15 02:09:25;;;;;;;;;;;;;;;;;;5073470;28;1231;-72
2022/10/15 02:11:54;;;;;;;;;;;;;;;;;;5056492;28;1320;-73
2022/10/15 02:14:23;;;;;;;;;;;;;;;;;;5056573;28;1445;-73
2022/10/15 02:16:51;;;;;;;;;;;;;;;;;;5073402;28;1589;-72
2022/10/15 02:19:18;;;;;;;;;;;;;;;;;;5073460;28;1303;-73
2022/10/15 02:21:47;;;;;;;;;;;;;;;;;;5074150;28;1272;-73
2022/10/15 02:24:14;;;;;;;;;;;;;;;;;;5057000;28;1922;-73
2022/10/15 02:26:40;;;;;;;;;;;;;;;;;;5074289;28;850;-75
2022/10/15 02:29:08;;;;;;;;;;;;;;;;;;5056509;28;1401;-73
2022/10/15 02:31:34;;;;;;;;;;;;;;;;;;5056286;28;1292;-73
2022/10/15 02:34:01;;;;;;;;;;;;;;;;;;5056196;28;1183;-72
2022/10/15 02:36:28;;;;;;;;;;;;;;;;;;5072988;28;1581;-73
2022/10/15 02:38:55;;;;;;;;;;;;;;;;;;5056705;28;1394;-73
2022/10/15 02:41:22;;;;;;;;;;;;;;;;;;5073721;28;1332;-73
2022/10/15 02:43:48;;;;;;;;;;;;;;;;;;5071885;28;1972;-73
2022/10/15 02:46:14;;;;;;;;;;;;;;;;;;5073877;28;838;-74
2022/10/15 02:48:42;;;;;;;;;;;;;;;;;;5072940;28;1464;-73
2022/10/15 02:51:08;;;;;;;;;;;;;;;;;;5056096;28;1420;-74
2022/10/15 02:53:34;;;;;;;;;;;;;;;;;;5055748;28;1188;-73
2022/10/15 02:56:04;;;;;;;;;;;;;;;;;;5074150;28;837;-73
2022/10/15 02:58:31;;;;;;;;;;;;;;;;;;5072927;28;1151;-74
2022/10/15 03:00:57;;;;;;;;;;;;;;;;;;5056380;28;1439;-74
2022/10/15 03:03:24;;;;;;;;;;;;;;;;;;5055929;28;1291;-73
2022/10/15 03:05:50;;;;;;;;;;;;;;;;;;5055907;28;1922;-73
2022/10/15 03:08:16;;;;;;;;;;;;;;;;;;5056055;28;1183;-73
2022/10/15 03:10:44;;;;;;;;;;;;;;;;;;5073486;28;1333;-73
2022/10/15 03:13:12;;;;;;;;;;;;;;;;;;5077303;22;1996;-72
2022/10/15 03:15:46;;;;;;;;;;;;;;;;;;5071677;28;1271;-71
2022/10/15 03:18:13;;;;;;;;;;;;;;;;;;5071814;28;1054;-72
2022/10/15 03:20:40;;;;;;;;;;;;;;;;;;5071914;28;1270;-72
2022/10/15 03:23:06;;;;;;;;;;;;;;;;;;5072544;28;1408;-72
2022/10/15 03:25:32;;;;;;;;;;;;;;;;;;5071435;28;1922;-72
2022/10/15 03:28:02;;;;;;;;;;;;;;;;;;5071529;28;1230;-72
2022/10/15 03:30:37;;;;;;;;;;;;;;;;;;5071706;28;1149;-72
2022/10/15 03:33:04;;;;;;;;;;;;;;;;;;5071095;28;1572;-72
2022/10/15 03:35:30;;;;;;;;;;;;;;;;;;5071313;28;1245;-72
2022/10/15 03:37:57;;;;;;;;;;;;;;;;;;5072693;28;854;-72
2022/10/15 03:40:23;;;;;;;;;;;;;;;;;;5071484;28;1428;-72
2022/10/15 03:42:52;;;;;;;;;;;;;;;;;;5072276;28;1413;-72
2022/10/15 03:45:23;;;;;;;;;;;;;;;;;;5072327;28;1914;-71
2022/10/15 03:47:59;;;;;;;;;;;;;;;;;;5071336;28;1349;-72
2022/10/15 03:50:29;;;;;;;;;;;;;;;;;;5071153;28;1681;-72
2022/10/15 03:52:59;;;;;;;;;;;;;;;;;;5070703;28;1333;-72
2022/10/15 03:55:25;;;;;;;;;;;;;;;;;;5071116;28;1541;-72
2022/10/15 03:57:52;;;;;;;;;;;;;;;;;;5072220;28;1154;-72
2022/10/15 04:00:18;;;;;;;;;;;;;;;;;;5070919;28;1182;-72
2022/10/15 04:02:47;;;;;;;;;;;;;;;;;;5087523;28;1318;-72
2022/10/15 04:05:25;;;;;;;;;;;;;;;;;;5070788;28;1906;-72
2022/10/15 04:07:56;;;;;;;;;;;;;;;;;;5070997;28;1588;-72
2022/10/15 04:10:25;;;;;;;;;;;;;;;;;;5084642;28;1608;-72
2022/10/15 04:12:52;;;;;;;;;;;;;;;;;;5091382;28;1317;-72
2022/10/15 04:15:18;;;;;;;;;;;;;;;;;;5090827;28;1166;-72
2022/10/15 04:17:53;;;;;;;;;;;;;;;;;;5075284;28;1411;-72
2022/10/15 04:20:20;;;;;;;;;;;;;;;;;;5070430;28;1701;-72
2022/10/15 04:22:48;;;;;;;;;;;;;;;;;;5070221;28;1399;-71
2022/10/15 04:25:15;;;;;;;;;;;;;;;;;;5070536;28;1977;-72
2022/10/15 04:27:41;;;;;;;;;;;;;;;;;;5070330;28;1654;-71
2022/10/15 04:30:11;;;;;;;;;;;;;;;;;;5070592;28;1272;-71
2022/10/15 04:32:42;;;;;;;;;;;;;;;;;;5072433;28;1435;-72
2022/10/15 04:35:10;;;;;;;;;;;;;;;;;;5068020;28;1165;-72
2022/10/15 04:37:58;;;;;;;;;;;;;;;;;;5053644;28;1485;-72
2022/10/15 04:40:24;;;;;;;;;;;;;;;;;;5071368;28;1398;-72
2022/10/15 04:42:50;;;;;;;;;;;;;;;;;;5073960;28;1410;-71
2022/10/15 04:45:17;;;;;;;;;;;;;;;;;;5050485;28;1910;-72
2022/10/15 04:47:43;;;;;;;;;;;;;;;;;;5050192;28;1267;-72
2022/10/15 04:50:14;;;;;;;;;;;;;;;;;;5050515;28;1465;-71
2022/10/15 04:53:00;;;;;;;;;;;;;;;;;;5076698;28;1448;-71
2022/10/15 04:55:30;;;;;;;;;;;;;;;;;;5069436;28;1422;-71
2022/10/15 04:57:59;;;;;;;;;;;;;;;;;;5061406;28;1606;-71
2022/10/15 05:00:29;;;;;;;;;;;;;;;;;;5054728;28;1519;-72
2022/10/15 05:03:12;;;;;;;;;;;;;;;;;;5065951;28;1329;-71
2022/10/15 05:05:46;;;;;;;;;;;;;;;;;;5049647;28;1922;-72
2022/10/15 05:08:14;;;;;;;;;;;;;;;;;;5070235;28;1393;-72
2022/10/15 05:11:00;;;;;;;;;;;;;;;;;;5052880;28;1555;-71
2022/10/15 05:13:26;;;;;;;;;;;;;;;;;;5060651;28;1429;-71
2022/10/15 05:15:53;;;;;;;;;;;;;;;;;;5062060;28;1363;-71
2022/10/15 05:18:22;;;;;;;;;;;;;;;;;;5049662;28;1496;-69
2022/10/15 05:20:51;;;;;;;;;;;;;;;;;;5064541;28;1507;-71
2022/10/15 05:23:20;;;;;;;;;;;;;;;;;;5057593;28;1402;-70
2022/10/15 05:26:05;;;;;;;;;;;;;;;;;;5058154;28;1913;-70
2022/10/15 05:28:31;;;;;;;;;;;;;;;;;;5074916;28;1478;-70
2022/10/15 05:31:03;;;;;;;;;;;;;;;;;;5073331;28;1553;-70
2022/10/15 05:33:29;;;;;;;;;;;;;;;;;;5073644;28;1390;-70
2022/10/15 05:35:55;;;;;;;;;;;;;;;;;;5077749;28;1467;-71
2022/10/15 05:38:24;;;;;;;;;;;;;;;;;;5084743;28;1353;-71
2022/10/15 05:40:50;;;;;;;;;;;;;;;;;;5073150;28;1357;-70
2022/10/15 05:43:21;;;;;;;;;;;;;;;;;;5072424;28;1475;-71
2022/10/15 05:45:49;;;;;;;;;;;;;;;;;;5073042;28;2038;-71
2022/10/15 05:48:16;;;;;;;;;;;;;;;;;;5072891;28;1298;-70
2022/10/15 05:50:42;;;;;;;;;;;;;;;;;;5073009;28;1393;-70
2022/10/15 05:53:13;;;;;;;;;;;;;;;;;;5072114;28;1462;-70
2022/10/15 05:55:45;;;;;;;;;;;;;;;;;;5072912;28;1541;-70
2022/10/15 05:58:11;;;;;;;;;;;;;;;;;;5074143;28;1306;-71
2022/10/15 06:00:38;;;;;;;;;;;;;;;;;;5072658;28;1345;-69
2022/10/15 06:03:04;;;;;;;;;;;;;;;;;;5067204;28;1583;-70
2022/10/15 06:05:31;;;;;;;;;;;;;;;;;;5073100;28;1910;-71
2022/10/15 06:07:57;;;;;;;;;;;;;;;;;;5073882;28;1397;-70
2022/10/15 06:10:24;;;;;;;;;;;;;;;;;;5080344;28;1393;-71
2022/10/15 06:12:51;;;;;;;;;;;;;;;;;;5073196;28;1403;-70
2022/10/15 06:15:18;;;;;;;;;;;;;;;;;;5072629;28;1306;-71
2022/10/15 06:17:44;;;;;;;;;;;;;;;;;;5074035;28;1169;-71
2022/10/15 06:20:11;;;;;;;;;;;;;;;;;;5074783;28;1391;-70
2022/10/15 06:22:37;;;;;;;;;;;;;;;;;;5081695;28;1621;-70
2022/10/15 06:25:03;;;;;;;;;;;;;;;;;;5071190;28;1914;-70
2022/10/15 06:27:32;;;;;;;;;;;;;;;;;;5073788;28;1063;-70
2022/10/15 06:29:59;;;;;;;;;;;;;;;;;;5054960;28;932;-70
2022/10/15 06:32:25;;;;;;;;;;;;;;;;;;5053580;28;1293;-70
2022/10/15 06:34:51;;;;;;;;;;;;;;;;;;5053314;28;821;-71
2022/10/15 06:37:18;;;;;;;;;;;;;;;;;;5059053;28;1380;-70
2022/10/15 06:39:45;;;;;;;;;;;;;;;;;;5077518;28;1270;-70
2022/10/15 06:42:11;;;;;;;;;;;;;;;;;;5072199;28;1329;-70
2022/10/15 06:44:37;;;;;;;;;;;;;;;;;;5072875;28;1468;-70
2022/10/15 06:47:05;;;;;;;;;;;;;;;;;;5074587;28;1979;-71
2022/10/15 06:49:31;;;;;;;;;;;;;;;;;;5052406;28;977;-70
2022/10/15 06:51:57;;;;;;;;;;;;;;;;;;5066751;28;1373;-71
2022/10/15 06:54:24;;;;;;;;;;;;;;;;;;5061135;28;1137;-70
2022/10/15 06:56:50;;;;;;;;;;;;;;;;;;5053610;28;1087;-70
2022/10/15 06:59:16;;;;;;;;;;;;;;;;;;5053470;28;1110;-70
2022/10/15 07:01:42;;;;;;;;;;;;;;;;;;5071883;28;1457;-71
2022/10/15 07:04:10;;;;;;;;;;;;;;;;;;5054688;28;1304;-70
2022/10/15 07:06:36;;;;;;;;;;;;;;;;;;5068440;28;1925;-70
2022/10/15 07:09:03;;;;;;;;;;;;;;;;;;5073268;28;1067;-69
2022/10/15 07:11:29;;;;;;;;;;;;;;;;;;5073358;28;1504;-70
2022/10/15 07:13:56;;;;;;;;;;;;;;;;;;5064914;28;1445;-71
2022/10/15 07:16:23;;;;;;;;;;;;;;;;;;5060192;28;1406;-71
2022/10/15 07:18:49;;;;;;;;;;;;;;;;;;5077240;28;1429;-72
2022/10/15 07:21:16;;;;;;;;;;;;;;;;;;5064831;28;1182;-69
2022/10/15 07:23:42;;;;;;;;;;;;;;;;;;5066135;28;1290;-70
2022/10/15 07:26:09;;;;;;;;;;;;;;;;;;5052743;28;1918;-70
2022/10/15 07:28:35;;;;;;;;;;;;;;;;;;5052702;28;1075;-71
2022/10/15 07:31:01;;;;;;;;;;;;;;;;;;5067557;28;1447;-71
2022/10/15 07:33:27;;;;;;;;;;;;;;;;;;5072324;28;1246;-71
2022/10/15 07:35:58;;;;;;;;;;;;;;;;;;5073016;28;1476;-71
2022/10/15 07:38:26;;;;;;;;;;;;;;;;;;5072635;28;1139;-71
2022/10/15 07:40:52;;;;;;;;;;;;;;;;;;5072719;28;782;-70
2022/10/15 07:43:18;;;;;;;;;;;;;;;;;;5072175;28;1314;-71
2022/10/15 07:45:47;;;;;;;;;;;;;;;;;;5072569;28;1973;-71
2022/10/15 07:48:13;;;;;;;;;;;;;;;;;;5071751;28;1114;-70
2022/10/15 07:50:39;;;;;;;;;;;;;;;;;;5071718;28;743;-71
2022/10/15 07:53:05;;;;;;;;;;;;;;;;;;5071947;28;1419;-71
2022/10/15 07:55:33;;;;;;;;;;;;;;;;;;5072598;28;1075;-70
2022/10/15 07:57:59;;;;;;;;;;;;;;;;;;5072329;28;1229;-70
2022/10/15 08:00:25;;;;;;;;;;;;;;;;;;5072357;28;1071;-70
2022/10/15 08:02:51;;;;;;;;;;;;;;;;;;5071997;28;1316;-70
2022/10/15 08:05:19;;;;;;;;;;;;;;;;;;5082471;28;1971;-70
2022/10/15 08:07:45;;;;;;;;;;;;;;;;;;5092634;28;889;-70
2022/10/15 08:10:12;;;;;;;;;;;;;;;;;;5091004;28;1315;-70
2022/10/15 08:12:39;;;;;;;;;;;;;;;;;;5091921;28;1314;-70
2022/10/15 08:15:06;;;;;;;;;;;;;;;;;;5092230;28;953;-70
2022/10/15 08:17:32;;;;;;;;;;;;;;;;;;5092566;28;679;-71
2022/10/15 08:19:59;;;;;;;;;;;;;;;;;;5092234;28;1079;-70
2022/10/15 08:22:25;;;;;;;;;;;;;;;;;;5091534;28;1302;-71
2022/10/15 08:24:55;;;;;;;;;;;;;;;;;;5090871;28;912;-70
2022/10/15 08:27:21;;;;;;;;;;;;;;;;;;5091733;28;1910;-69
2022/10/15 08:29:49;;;;;;;;;;;;;;;;;;5092070;28;842;-70
2022/10/15 08:32:15;;;;;;;;;;;;;;;;;;5091375;28;1381;-71
2022/10/15 08:34:41;;;;;;;;;;;;;;;;;;5090928;28;1483;-70
2022/10/15 08:37:07;;;;;;;;;;;;;;;;;;5091796;28;1047;-70
2022/10/15 08:39:33;;;;;;;;;;;;;;;;;;5091769;28;1324;-70
2022/10/15 08:42:00;;;;;;;;;;;;;;;;;;5091427;28;1326;-70
2022/10/15 08:44:27;;;;;;;;;;;;;;;;;;5091498;28;790;-70
2022/10/15 08:46:55;;;;;;;;;;;;;;;;;;5091878;28;1971;-70
2022/10/15 08:49:25;;;;;;;;;;;;;;;;;;5091683;28;1075;-71
2022/10/15 08:51:53;;;;;;;;;;;;;;;;;;5091317;28;960;-70
2022/10/15 08:54:19;;;;;;;;;;;;;;;;;;5091485;28;984;-70
2022/10/15 08:56:46;;;;;;;;;;;;;;;;;;5091419;28;1201;-71
2022/10/15 08:59:14;;;;;;;;;;;;;;;;;;5069664;28;1214;-71
2022/10/15 09:01:42;;;;;;;;;;;;;;;;;;5071246;28;1055;-71
2022/10/15 09:04:14;;;;;;;;;;;;;;;;;;5070127;28;1486;-71
2022/10/15 09:06:41;;;;;;;;;;;;;;;;;;5070424;28;2029;-69
2022/10/15 09:09:08;;;;;;;;;;;;;;;;;;5069079;28;1046;-70
2022/10/15 09:11:36;;;;;;;;;;;;;;;;;;5065386;28;1247;-70
2022/10/15 09:14:03;;;;;;;;;;;;;;;;;;5065599;22;4150;-76
2022/10/15 09:16:30;;;;;;;;;;;;;;;;;;5049946;28;1466;-75
2022/10/15 09:18:56;;;;;;;;;;;;;;;;;;5051372;28;1082;-75
2022/10/15 09:21:24;;;;;;;;;;;;;;;;;;5051096;28;1126;-73
2022/10/15 09:23:50;;;;;;;;;;;;;;;;;;5050195;28;1723;-74
2022/10/15 09:26:20;;;;;;;;;;;;;;;;;;5024279;28;1964;-77
2022/10/15 09:28:47;;;;;;;;;;;;;;;;;;5050686;28;1657;-75
2022/10/15 09:31:19;;;;;;;;;;;;;;;;;;5050009;28;1524;-74
2022/10/15 09:33:46;;;;;;;;;;;;;;;;;;5041656;28;1491;-75
2022/10/15 09:36:27;;;;;;;;;;;;;;;;;;5050681;28;1421;-75
2022/10/15 09:38:57;;;;;;;;;;;;;;;;;;5051035;28;1072;-73
2022/10/15 09:41:25;;;;;;;;;;;;;;;;;;5050403;28;1079;-75
2022/10/15 09:43:52;;;;;;;;;;;;;;;;;;5050867;28;1317;-73
2022/10/15 09:46:19;;;;;;;;;;;;;;;;;;5032931;28;1974;-75
2022/10/15 09:48:46;;;;;;;;;;;;;;;;;;5049535;28;1250;-75
2022/10/15 09:51:13;;;;;;;;;;;;;;;;;;5050723;28;957;-73
2022/10/15 09:53:44;;;;;;;;;;;;;;;;;;5050464;28;1127;-75
2022/10/15 09:56:11;;;;;;;;;;;;;;;;;;5050640;28;1427;-75
2022/10/15 09:58:38;;;;;;;;;;;;;;;;;;5050752;28;853;-76
2022/10/15 10:01:05;;;;;;;;;;;;;;;;;;5050801;28;1104;-74
2022/10/15 10:03:35;;;;;;;;;;;;;;;;;;5050232;28;1432;-75
2022/10/15 10:06:05;;;;;;;;;;;;;;;;;;5050531;28;1910;-75
2022/10/15 10:08:37;;;;;;;;;;;;;;;;;;5050845;28;837;-74
2022/10/15 10:11:06;;;;;;;;;;;;;;;;;;5034778;28;1523;-75
2022/10/15 10:13:33;;;;;;;;;;;;;;;;;;5053851;28;849;-75
2022/10/15 10:16:02;;;;;;;;;;;;;;;;;;5054193;28;1311;-75
2022/10/15 10:18:30;;;;;;;;;;;;;;;;;;5054209;28;1080;-75
2022/10/15 10:20:58;;;;;;;;;;;;;;;;;;5054136;28;906;-74
2022/10/15 10:23:25;;;;;;;;;;;;;;;;;;5053565;28;1076;-75
2022/10/15 10:25:51;;;;;;;;;;;;;;;;;;5053942;28;1292;-75
2022/10/15 10:28:22;;;;;;;;;;;;;;;;;;5054093;28;1983;-74
2022/10/15 10:31:02;;;;;;;;;;;;;;;;;;5053667;28;843;-75
2022/10/15 10:33:28;;;;;;;;;;;;;;;;;;5053374;28;1523;-75
2022/10/15 10:35:54;;;;;;;;;;;;;;;;;;5053682;28;1320;-74
2022/10/15 10:38:21;;;;;;;;;;;;;;;;;;5053757;28;1068;-75
2022/10/15 10:40:50;;;;;;;;;;;;;;;;;;5036082;28;1314;-75
2022/10/15 10:43:18;;;;;;;;;;;;;;;;;;5035312;28;1171;-74
2022/10/15 10:45:53;;;;;;;;;;;;;;;;;;5053890;28;1396;-74
2022/10/15 10:48:20;;;;;;;;;;;;;;;;;;5053459;28;2043;-75
2022/10/15 10:50:46;;;;;;;;;;;;;;;;;;5053672;28;1052;-75
2022/10/15 10:53:23;;;;;;;;;;;;;;;;;;5054077;28;945;-73
2022/10/15 10:55:49;;;;;;;;;;;;;;;;;;5054293;28;1353;-75
2022/10/15 10:58:17;;;;;;;;;;;;;;;;;;5053962;28;831;-77
2022/10/15 11:00:48;;;;;;;;;;;;;;;;;;5054312;28;898;-72
2022/10/15 11:03:19;;;;;;;;;;;;;;;;;;5053832;28;1522;-72
2022/10/15 11:05:46;;;;;;;;;;;;;;;;;;5053381;28;1404;-73
2022/10/15 11:08:14;;;;;;;;;;;;;;;;;;5052975;28;1977;-72
2022/10/15 11:10:41;;;;;;;;;;;;;;;;;;5053347;28;885;-72
2022/10/15 11:13:11;;;;;;;;;;;;;;;;;;5052893;28;1059;-73
2022/10/15 11:15:41;;;;;;;;;;;;;;;;;;5053068;28;1332;-73
2022/10/15 11:18:20;;;;;;;;;;;;;;;;;;5053073;28;1123;-74
2022/10/15 11:20:47;;;;;;;;;;;;;;;;;;5053241;28;929;-74
2022/10/15 11:23:15;;;;;;;;;;;;;;;;;;5052679;28;1123;-73
2022/10/15 11:25:43;;;;;;;;;;;;;;;;;;5033702;28;1555;-73
2022/10/15 11:28:16;;;;;;;;;;;;;;;;;;5050722;28;1910;-73
2022/10/15 11:30:45;;;;;;;;;;;;;;;;;;5047735;28;1205;-74
2022/10/15 11:33:16;;;;;;;;;;;;;;;;;;5034316;28;1345;-73
2022/10/15 11:35:46;;;;;;;;;;;;;;;;;;5051665;28;1474;-72
2022/10/15 11:38:15;;;;;;;;;;;;;;;;;;5051042;28;1340;-72
2022/10/15 11:40:44;;;;;;;;;;;;;;;;;;5050678;28;1492;-70
2022/10/15 11:43:12;;;;;;;;;;;;;;;;;;5052049;28;1067;-73
2022/10/15 11:45:42;;;;;;;;;;;;;;;;;;5033641;28;1485;-73
2022/10/15 11:48:11;;;;;;;;;;;;;;;;;;5034472;28;1918;-73
2022/10/15 11:50:40;;;;;;;;;;;;;;;;;;5034718;28;973;-73
2022/10/15 11:53:11;;;;;;;;;;;;;;;;;;5052268;28;1020;-73
2022/10/15 11:55:39;;;;;;;;;;;;;;;;;;5052426;28;1399;-73
2022/10/15 11:58:06;;;;;;;;;;;;;;;;;;5034436;28;1486;-73
2022/10/15 12:00:33;;;;;;;;;;;;;;;;;;5051533;28;1444;-73
2022/10/15 12:03:00;;;;;;;;;;;;;;;;;;5033524;28;1201;-72
2022/10/15 12:05:29;;;;;;;;;;;;;;;;;;5052038;28;1323;-73
2022/10/15 12:07:55;;;;;;;;;;;;;;;;;;5052209;28;1906;-73
2022/10/15 12:10:27;;;;;;;;;;;;;;;;;;5034203;28;1315;-73
2022/10/15 12:12:56;;;;;;;;;;;;;;;;;;5051822;28;1060;-72
2022/10/15 12:15:24;;;;;;;;;;;;;;;;;;5051794;28;1314;-75
2022/10/15 12:17:51;;;;;;;;;;;;;;;;;;5052096;28;1044;-73
2022/10/15 12:20:18;;;;;;;;;;;;;;;;;;5050960;28;1521;-73
2022/10/15 12:22:53;;;;;;;;;;;;;;;;;;5051564;28;1162;-73
2022/10/15 12:25:38;;;;;;;;;;;;;;;;;;5033773;28;1363;-73
2022/10/15 12:28:12;;;;;;;;;;;;;;;;;;5051552;28;1979;-73
2022/10/15 12:30:38;;;;;;;;;;;;;;;;;;5031204;28;1427;-73
2022/10/15 12:33:19;;;;;;;;;;;;;;;;;;5049820;28;1452;-72
2022/10/15 12:35:48;;;;;;;;;;;;;;;;;;5051605;28;1449;-73
2022/10/15 12:38:19;;;;;;;;;;;;;;;;;;5051438;28;1388;-72
2022/10/15 12:40:46;;;;;;;;;;;;;;;;;;5051214;28;1444;-74
2022/10/15 12:43:16;;;;;;;;;;;;;;;;;;5051322;28;1142;-75
2022/10/15 12:45:50;;;;;;;;;;;;;;;;;;5049636;28;1525;-75
2022/10/15 12:48:28;;;;;;;;;;;;;;;;;;5051255;28;1910;-75
2022/10/15 12:51:10;;;;;;;;;;;;;;;;;;5050715;28;1479;-78
2022/10/15 12:53:36;;;;;;;;;;;;;;;;;;5049357;28;1395;-73
2022/10/15 12:56:12;;;;;;;;;;;;;;;;;;5034689;28;1921;-72
2022/10/15 12:58:42;;;;;;;;;;;;;;;;;;5032711;28;1421;-72
2022/10/15 13:01:23;;;;;;;;;;;;;;;;;;5045872;28;1898;-72
2022/10/15 13:03:52;;;;;;;;;;;;;;;;;;5042384;28;1589;-73
2022/10/15 13:06:23;;;;;;;;;;;;;;;;;;5042291;28;1365;-73
2022/10/15 13:08:49;;;;;;;;;;;;;;;;;;5040737;28;1973;-73
2022/10/15 13:11:18;;;;;;;;;;;;;;;;;;5050639;28;1246;-70
2022/10/15 13:13:45;;;;;;;;;;;;;;;;;;5047542;28;1358;-73
2022/10/15 13:16:11;;;;;;;;;;;;;;;;;;5026157;28;1426;-73
2022/10/15 13:18:50;;;;;;;;;;;;;;;;;;5046245;28;1471;-72
2022/10/15 13:21:17;;;;;;;;;;;;;;;;;;5047674;28;1312;-70
2022/10/15 13:23:46;;;;;;;;;;;;;;;;;;5048440;28;1372;-75
2022/10/15 13:26:15;;;;;;;;;;;;;;;;;;5048173;28;1321;-73
2022/10/15 13:28:42;;;;;;;;;;;;;;;;;;5043293;28;1922;-73
2022/10/15 13:31:12;;;;;;;;;;;;;;;;;;5044930;28;1420;-72
2022/10/15 13:33:39;;;;;;;;;;;;;;;;;;5046422;28;1463;-72
2022/10/15 13:36:05;;;;;;;;;;;;;;;;;;5046172;28;1702;-73
2022/10/15 13:38:32;;;;;;;;;;;;;;;;;;5045711;28;1472;-72
2022/10/15 13:40:58;;;;;;;;;;;;;;;;;;5029150;28;1494;-73
2022/10/15 13:43:25;;;;;;;;;;;;;;;;;;5046938;28;1495;-73
2022/10/15 13:45:53;;;;;;;;;;;;;;;;;;5046312;28;1678;-73
2022/10/15 13:48:22;;;;;;;;;;;;;;;;;;5050921;28;1967;-75
2022/10/15 13:50:48;;;;;;;;;;;;;;;;;;5034204;28;1406;-73
2022/10/15 13:53:16;;;;;;;;;;;;;;;;;;5050795;28;1586;-71
2022/10/15 13:55:44;;;;;;;;;;;;;;;;;;5037468;28;1407;-72
2022/10/15 13:58:15;;;;;;;;;;;;;;;;;;5050752;28;1498;-76
2022/10/15 14:00:41;;;;;;;;;;;;;;;;;;5031374;28;1730;-74
2022/10/15 14:03:08;;;;;;;;;;;;;;;;;;5035614;28;1420;-73
2022/10/15 14:05:35;;;;;;;;;;;;;;;;;;5051935;28;1377;-73
2022/10/15 14:08:02;;;;;;;;;;;;;;;;;;5054740;28;1971;-73
2022/10/15 14:10:28;;;;;;;;;;;;;;;;;;5054388;28;1020;-73
2022/10/15 14:12:54;;;;;;;;;;;;;;;;;;5054030;28;850;-73
2022/10/15 14:15:40;;;;;;;;;;;;;;;;;;5053837;28;1343;-73
2022/10/15 14:18:06;;;;;;;;;;;;;;;;;;5054178;28;874;-72
2022/10/15 14:20:32;;;;;;;;;;;;;;;;;;5054055;28;1146;-72
2022/10/15 14:23:00;;;;;;;;;;;;;;;;;;5054032;28;870;-72
2022/10/15 14:25:26;;;;;;;;;;;;;;;;;;5053771;28;1375;-71
2022/10/15 14:27:52;;;;;;;;;;;;;;;;;;5053794;28;1926;-72
2022/10/15 14:30:21;;;;;;;;;;;;;;;;;;5053761;28;952;-74
2022/10/15 14:32:49;;;;;;;;;;;;;;;;;;5053238;28;1532;-73
2022/10/15 14:35:22;;;;;;;;;;;;;;;;;;5053563;28;1302;-73
2022/10/15 14:37:57;;;;;;;;;;;;;;;;;;5053689;28;1103;-75
2022/10/15 14:40:25;;;;;;;;;;;;;;;;;;5035563;28;997;-74
2022/10/15 14:43:01;;;;;;;;;;;;;;;;;;5053274;28;798;-75
2022/10/15 14:45:28;;;;;;;;;;;;;;;;;;5053527;28;1398;-74
2022/10/15 14:47:55;;;;;;;;;;;;;;;;;;5053972;28;1971;-73
2022/10/15 14:50:23;;;;;;;;;;;;;;;;;;5053339;28;981;-72
2022/10/15 14:52:50;;;;;;;;;;;;;;;;;;5051177;28;1646;-72
2022/10/15 14:55:19;;;;;;;;;;;;;;;;;;5052171;28;1328;-73
2022/10/15 14:57:48;;;;;;;;;;;;;;;;;;5051903;28;1462;-72
2022/10/15 15:00:17;;;;;;;;;;;;;;;;;;5048883;28;1470;-71
2022/10/15 15:02:43;;;;;;;;;;;;;;;;;;5050035;28;1474;-73
2022/10/15 15:05:17;;;;;;;;;;;;;;;;;;5050066;28;1364;-73
2022/10/15 15:07:43;;;;;;;;;;;;;;;;;;5049451;28;1972;-73
2022/10/15 15:10:10;;;;;;;;;;;;;;;;;;5030736;28;1471;-72
2022/10/15 15:12:38;;;;;;;;;;;;;;;;;;5050041;28;1377;-75
2022/10/15 15:15:06;;;;;;;;;;;;;;;;;;5027911;28;1645;-75
2022/10/15 15:17:32;;;;;;;;;;;;;;;;;;5050654;28;1392;-75
2022/10/15 15:19:59;;;;;;;;;;;;;;;;;;5051081;28;1130;-74
2022/10/15 15:22:27;;;;;;;;;;;;;;;;;;5050606;28;1124;-74
2022/10/15 15:24:53;;;;;;;;;;;;;;;;;;5051031;28;1341;-74
2022/10/15 15:27:23;;;;;;;;;;;;;;;;;;5033479;28;1337;-73
2022/10/15 15:29:50;;;;;;;;;;;;;;;;;;5049714;28;1979;-74
2022/10/15 15:32:17;;;;;;;;;;;;;;;;;;5049985;28;1365;-74
2022/10/15 15:34:44;;;;;;;;;;;;;;;;;;5048932;28;1484;-73
2022/10/15 15:37:12;;;;;;;;;;;;;;;;;;5032778;28;1436;-74
2022/10/15 15:39:38;;;;;;;;;;;;;;;;;;5030843;28;759;-74
2022/10/15 15:42:04;;;;;;;;;;;;;;;;;;5012697;28;1471;-74
2022/10/15 15:44:30;;;;;;;;;;;;;;;;;;5030850;28;1332;-74
2022/10/15 15:46:56;;;;;;;;;;;;;;;;;;5036533;28;1777;-75
2022/10/15 15:49:24;;;;;;;;;;;;;;;;;;5049560;28;1922;-73
2022/10/15 15:51:50;;;;;;;;;;;;;;;;;;5031786;28;1387;-75
2022/10/15 15:54:16;;;;;;;;;;;;;;;;;;5032126;28;1331;-74
2022/10/15 15:56:42;;;;;;;;;;;;;;;;;;5049439;28;1118;-74
2022/10/15 15:59:09;;;;;;;;;;;;;;;;;;5050104;28;873;-74
2022/10/15 16:01:35;;;;;;;;;;;;;;;;;;5048986;28;1467;-73
2022/10/15 16:04:01;;;;;;;;;;;;;;;;;;5032122;28;1427;-73
2022/10/15 16:06:29;;;;;;;;;;;;;;;;;;5030842;28;1475;-73
2022/10/15 16:08:58;;;;;;;;;;;;;;;;;;5045872;28;1926;-74
2022/10/15 16:11:24;;;;;;;;;;;;;;;;;;5049537;28;972;-72
2022/10/15 16:13:50;;;;;;;;;;;;;;;;;;5048027;28;1044;-73
2022/10/15 16:16:17;;;;;;;;;;;;;;;;;;5049498;28;1328;-73
2022/10/15 16:18:43;;;;;;;;;;;;;;;;;;5049800;28;1088;-72
2022/10/15 16:21:09;;;;;;;;;;;;;;;;;;5049810;28;1123;-70
2022/10/15 16:23:37;;;;;;;;;;;;;;;;;;5049334;28;1311;-73
2022/10/15 16:26:03;;;;;;;;;;;;;;;;;;5049554;28;1328;-73
2022/10/15 16:28:29;;;;;;;;;;;;;;;;;;5048561;28;1918;-73
2022/10/15 16:30:55;;;;;;;;;;;;;;;;;;5031919;28;1269;-73
2022/10/15 16:33:21;;;;;;;;;;;;;;;;;;5049268;28;1128;-73
2022/10/15 16:35:50;;;;;;;;;;;;;;;;;;5049565;28;1363;-74
2022/10/15 16:38:17;;;;;;;;;;;;;;;;;;5048526;28;1574;-72
2022/10/15 16:40:47;;;;;;;;;;;;;;;;;;5049732;28;1142;-73
2022/10/15 16:43:13;;;;;;;;;;;;;;;;;;5048335;28;1415;-72
2022/10/15 16:45:39;;;;;;;;;;;;;;;;;;5047965;28;1451;-73
2022/10/15 16:48:06;;;;;;;;;;;;;;;;;;5031748;28;1954;-70
2022/10/15 16:50:32;;;;;;;;;;;;;;;;;;5049333;28;744;-73
2022/10/15 16:52:58;;;;;;;;;;;;;;;;;;5049364;28;964;-73
2022/10/15 16:55:24;;;;;;;;;;;;;;;;;;5049510;28;1417;-73
2022/10/15 16:57:51;;;;;;;;;;;;;;;;;;5049493;28;893;-71
2022/10/15 17:00:18;;;;;;;;;;;;;;;;;;5030859;28;1479;-73
2022/10/15 17:02:44;;;;;;;;;;;;;;;;;;5048964;28;1114;-71
2022/10/15 17:05:10;;;;;;;;;;;;;;;;;;5048366;28;1475;-73
2022/10/15 17:07:36;;;;;;;;;;;;;;;;;;5049989;28;1118;-73
2022/10/15 17:10:03;;;;;;;;;;;;;;;;;;5048347;28;1926;-72
2022/10/15 17:12:29;;;;;;;;;;;;;;;;;;5048437;28;1448;-72